Time;durP1;ratioP1;P1;durP2;ratioP2;P2;SDS_P1;SDS_P2;PMS_P1;PMS_P2;Temp;Humidity;BMP_temperature;BMP_pressure;BME280_temperature;BME280_humidity;BME280_pressure;Samples;Min_cycle;Max_cycle;Signal;HPM_P1;HPM_P2
2024/01/16 00:04:11;;;;;;;2.20;1.50;;;;;;;-1.64;76.31;98407.20;216002;1259;61247;-71
2024/01/16 00:09:05;;;;;;;4.30;1.20;;;;;;;-1.65;75.97;98415.48;215860;1259;71385;-71
2024/01/16 00:13:58;;;;;;;1.60;1.40;;;;;;;-1.66;75.94;98425.65;216062;1257;61211;-71
2024/01/16 00:18:50;;;;;;;2.20;1.40;;;;;;;-1.69;75.65;98434.58;216004;1258;61253;-71
2024/01/16 00:23:43;;;;;;;1.90;1.60;;;;;;;-1.72;75.51;98445.02;216020;1255;61366;-71
2024/01/16 00:28:36;;;;;;;2.00;1.30;;;;;;;-1.73;75.49;98452.12;215987;1258;61345;-73
2024/01/16 00:33:29;;;;;;;1.80;1.20;;;;;;;-1.74;75.89;98454.13;216065;1257;61906;-71
2024/01/16 00:38:22;;;;;;;2.00;1.40;;;;;;;-1.75;75.85;98468.02;216087;1254;61249;-71
2024/01/16 00:43:15;;;;;;;2.70;1.40;;;;;;;-1.76;75.98;98468.86;216063;1254;61308;-71
2024/01/16 00:48:10;;;;;;;2.20;1.30;;;;;;;-1.76;76.03;98479.56;216062;1254;61262;-71
2024/01/16 00:53:03;;;;;;;2.70;1.40;;;;;;;-1.78;75.69;98489.55;216058;1254;74384;-72
2024/01/16 00:57:56;;;;;;;2.20;1.50;;;;;;;-1.81;75.79;98493.35;216050;1257;61329;-71
2024/01/16 01:02:48;;;;;;;2.70;1.70;;;;;;;-1.81;76.00;98501.81;215843;1254;61223;-71
2024/01/16 01:07:41;;;;;;;3.10;1.50;;;;;;;-1.83;75.95;98511.60;215843;1258;62663;-71
2024/01/16 01:12:34;;;;;;;2.00;1.10;;;;;;;-1.85;75.94;98519.86;215870;1257;61250;-73
2024/01/16 01:17:27;;;;;;;3.30;1.80;;;;;;;-1.87;75.90;98526.08;215826;1257;61461;-72
2024/01/16 01:22:25;;;;;;;3.80;2.40;;;;;;;-1.89;75.92;98528.23;215811;1256;71437;-73
2024/01/16 01:27:17;;;;;;;3.40;1.50;;;;;;;-1.94;75.86;98532.67;215814;1257;61346;-73
2024/01/16 01:32:10;;;;;;;4.80;1.90;;;;;;;-2.01;75.91;98545.51;216050;1257;61329;-72
2024/01/16 01:37:03;;;;;;;3.90;1.50;;;;;;;-2.14;75.94;98554.09;216041;1257;84700;-72
2024/01/16 01:41:56;;;;;;;1.70;1.40;;;;;;;-2.25;75.99;98567.96;216212;1254;61307;-72
2024/01/16 01:46:48;;;;;;;5.40;1.40;;;;;;;-2.31;76.04;98577.47;216172;1256;61257;-72
2024/01/16 01:51:41;;;;;;;2.30;1.60;;;;;;;-2.32;76.16;98591.02;216014;1254;61230;-72
2024/01/16 01:56:35;;;;;;;2.60;1.80;;;;;;;-2.31;76.44;98603.95;215957;1254;61320;-72
2024/01/16 02:01:31;;;;;;;2.40;1.40;;;;;;;-2.27;76.28;98610.52;215980;1254;61260;-72
2024/01/16 02:06:24;;;;;;;2.30;1.30;;;;;;;-2.24;76.60;98618.58;216018;1254;74396;-72
2024/01/16 02:11:17;;;;;;;1.90;1.40;;;;;;;-2.21;76.51;98628.36;215962;1254;71567;-72
2024/01/16 02:16:23;;;;;;;1.70;1.60;;;;;;;-2.21;76.56;98639.89;215924;1254;61277;-72
2024/01/16 02:21:23;;;;;;;2.30;1.40;;;;;;;-2.21;76.27;98644.99;216100;1254;65447;-72
2024/01/16 02:26:18;;;;;;;4.50;1.30;;;;;;;-2.21;75.47;98657.21;215978;1254;61198;-73
2024/01/16 02:31:10;;;;;;;1.80;1.30;;;;;;;-2.27;74.74;98660.08;216005;1255;73335;-72
2024/01/16 02:36:03;;;;;;;2.20;1.10;;;;;;;-2.40;74.67;98667.27;215950;1254;61272;-72
2024/01/16 02:40:56;;;;;;;2.00;1.00;;;;;;;-2.53;74.60;98671.73;215944;1254;61266;-72
2024/01/16 02:45:49;;;;;;;1.40;1.00;;;;;;;-2.66;74.10;98684.48;215907;1254;61256;-73
2024/01/16 02:50:41;;;;;;;3.00;1.10;;;;;;;-2.76;73.69;98695.45;215943;1255;59741;-72
2024/01/16 02:55:34;;;;;;;4.40;1.40;;;;;;;-2.87;73.84;98705.91;215886;1254;61262;-72
2024/01/16 03:00:27;;;;;;;2.60;1.40;;;;;;;-2.94;73.52;98720.03;215887;1254;61269;-72
2024/01/16 03:05:20;;;;;;;3.00;1.40;;;;;;;-2.98;73.33;98731.60;215959;1255;61716;-72
2024/01/16 03:10:13;;;;;;;3.10;1.00;;;;;;;-3.02;73.11;98732.44;215924;1254;61390;-72
2024/01/16 03:15:06;;;;;;;0.90;0.90;;;;;;;-3.04;73.04;98738.98;215874;1254;61265;-72
2024/01/16 03:19:59;;;;;;;1.90;1.60;;;;;;;-3.05;72.80;98741.83;215905;1254;61349;-72
2024/01/16 03:24:52;;;;;;;2.30;1.30;;;;;;;-3.03;73.30;98751.89;215938;1254;61252;-72
2024/01/16 03:29:44;;;;;;;2.20;1.10;;;;;;;-3.02;73.20;98761.09;215932;1254;61273;-72
2024/01/16 03:34:38;;;;;;;1.20;1.00;;;;;;;-3.05;73.23;98765.40;215878;1254;61336;-72
2024/01/16 03:39:31;;;;;;;2.50;1.20;;;;;;;-3.11;73.19;98771.27;215862;1254;61354;-72
2024/01/16 03:44:23;;;;;;;2.30;1.40;;;;;;;-3.19;73.45;98775.84;215941;1252;62084;-72
2024/01/16 03:49:16;;;;;;;2.40;1.50;;;;;;;-3.28;73.54;98788.05;215959;1253;61313;-72
2024/01/16 03:54:09;;;;;;;1.90;1.40;;;;;;;-3.37;73.66;98797.80;215922;1254;61242;-72
2024/01/16 03:59:03;;;;;;;2.00;1.20;;;;;;;-3.45;73.73;98809.35;215910;1254;61356;-72
2024/01/16 04:03:56;;;;;;;2.20;1.20;;;;;;;-3.51;73.54;98823.16;215934;1252;61329;-72
2024/01/16 04:08:49;;;;;;;4.10;1.70;;;;;;;-3.57;73.82;98830.34;215935;1254;61870;-72
2024/01/16 04:13:42;;;;;;;3.60;1.70;;;;;;;-3.57;73.99;98850.52;215845;1254;61361;-72
2024/01/16 04:18:37;;;;;;;2.90;1.10;;;;;;;-3.56;74.00;98869.88;215852;1253;61362;-72
2024/01/16 04:23:30;;;;;;;2.30;1.30;;;;;;;-3.55;73.79;98879.40;215906;1254;66159;-72
2024/01/16 04:28:23;;;;;;;4.10;1.20;;;;;;;-3.52;73.86;98883.42;215993;1254;61300;-72
2024/01/16 04:33:16;;;;;;;2.30;1.10;;;;;;;-3.51;73.78;98893.13;215876;1254;61237;-72
2024/01/16 04:38:10;;;;;;;1.30;1.00;;;;;;;-3.52;73.54;98897.48;216066;1254;70211;-72
2024/01/16 04:43:02;;;;;;;2.20;1.80;;;;;;;-3.56;73.12;98905.08;216000;1254;61324;-73
2024/01/16 04:47:55;;;;;;;2.10;1.00;;;;;;;-3.63;73.08;98911.22;215966;1255;61285;-72
2024/01/16 04:52:48;;;;;;;1.40;1.00;;;;;;;-3.72;72.94;98917.91;215899;1253;61352;-72
2024/01/16 04:57:45;;;;;;;2.10;1.80;;;;;;;-3.82;72.79;98929.50;215975;1254;75023;-72
2024/01/16 05:02:37;;;;;;;2.20;0.80;;;;;;;-3.90;72.91;98931.86;215979;1254;61257;-72
2024/01/16 05:07:30;;;;;;;1.80;1.40;;;;;;;-3.99;72.84;98934.52;215952;1251;61323;-72
2024/01/16 05:12:23;;;;;;;1.90;0.90;;;;;;;-4.07;73.05;98947.51;216000;1254;61313;-72
2024/01/16 05:17:16;;;;;;;3.00;0.90;;;;;;;-4.10;73.04;98957.87;215963;1256;61365;-72
2024/01/16 05:22:11;;;;;;;2.50;0.90;;;;;;;-4.15;72.83;98969.28;215910;1252;61279;-72
2024/01/16 05:27:04;;;;;;;1.50;0.90;;;;;;;-4.21;72.96;98980.50;216014;1253;71272;-72
2024/01/16 05:31:57;;;;;;;1.50;1.10;;;;;;;-4.27;72.90;98987.69;215993;1253;61239;-72
2024/01/16 05:36:50;;;;;;;1.60;1.00;;;;;;;-4.34;73.18;98986.01;216026;1254;61329;-72
2024/01/16 05:41:42;;;;;;;2.40;1.40;;;;;;;-4.39;73.17;98996.05;216004;1254;61208;-72
2024/01/16 05:46:35;;;;;;;4.10;1.40;;;;;;;-4.41;73.27;99010.86;216085;1251;61201;-72
2024/01/16 05:51:29;;;;;;;2.80;1.60;;;;;;;-4.39;73.52;99018.58;215945;1251;61351;-72
2024/01/16 05:56:22;;;;;;;3.10;1.60;;;;;;;-4.35;73.32;99024.84;216205;1254;61278;-72
2024/01/16 06:01:15;;;;;;;4.00;1.70;;;;;;;-4.32;73.48;99030.73;216053;1253;61262;-72
2024/01/16 06:06:08;;;;;;;2.40;1.40;;;;;;;-4.31;73.46;99032.83;215965;1251;61365;-72
2024/01/16 06:11:01;;;;;;;5.90;1.80;;;;;;;-4.34;73.35;99039.27;215932;1253;61233;-72
2024/01/16 06:15:54;;;;;;;4.10;2.00;;;;;;;-4.39;73.28;99045.27;215998;1251;61271;-72
2024/01/16 06:20:47;;;;;;;5.30;1.70;;;;;;;-4.45;73.47;99054.78;215994;1254;61336;-72
2024/01/16 06:25:39;;;;;;;2.30;1.30;;;;;;;-4.52;73.14;99063.92;215992;1253;61374;-72
2024/01/16 06:30:32;;;;;;;4.00;2.20;;;;;;;-4.54;73.25;99076.15;215976;1253;61806;-72
2024/01/16 06:35:25;;;;;;;3.90;2.40;;;;;;;-4.56;73.32;99078.77;215910;1253;61228;-72
2024/01/16 06:40:18;;;;;;;3.90;1.10;;;;;;;-4.59;73.06;99094.19;216023;1254;61243;-73
2024/01/16 06:45:12;;;;;;;2.00;1.50;;;;;;;-4.58;73.07;99100.30;215948;1254;61355;-71
2024/01/16 06:50:07;;;;;;;1.90;1.10;;;;;;;-4.53;72.90;99107.33;216006;1251;65715;-71
2024/01/16 06:55:00;;;;;;;2.10;1.20;;;;;;;-4.49;72.91;99115.45;216044;1253;61317;-72
2024/01/16 06:59:53;;;;;;;2.40;1.30;;;;;;;-4.47;73.16;99112.17;215991;1254;61260;-72
2024/01/16 07:04:46;;;;;;;3.20;1.70;;;;;;;-4.44;72.82;99124.36;216028;1254;62729;-71
2024/01/16 07:09:39;;;;;;;5.10;1.80;;;;;;;-4.43;72.94;99133.02;215904;1251;61251;-71
2024/01/16 07:14:33;;;;;;;2.20;1.50;;;;;;;-4.48;72.63;99141.39;216074;1254;61365;-71
2024/01/16 07:19:26;;;;;;;1.70;1.20;;;;;;;-4.50;72.83;99151.98;215853;1253;61828;-71
2024/01/16 07:24:19;;;;;;;1.90;1.10;;;;;;;-4.40;72.70;99160.44;215924;1251;61986;-71
2024/01/16 07:29:12;;;;;;;2.00;1.70;;;;;;;-4.28;71.96;99167.66;215996;1251;62080;-71
2024/01/16 07:34:05;;;;;;;2.70;1.20;;;;;;;-4.10;71.68;99172.08;216005;1253;61690;-71
2024/01/16 07:38:57;;;;;;;1.80;1.10;;;;;;;-4.04;71.54;99179.65;215927;1254;61262;-71
2024/01/16 07:43:50;;;;;;;1.00;0.90;;;;;;;-4.13;71.13;99190.73;215997;1252;61330;-73
2024/01/16 07:48:43;;;;;;;3.90;0.90;;;;;;;-4.26;71.35;99202.59;215990;1253;61191;-71
2024/01/16 07:53:36;;;;;;;1.10;0.90;;;;;;;-4.38;71.41;99211.10;216009;1254;61261;-71
2024/01/16 07:58:29;;;;;;;3.50;1.30;;;;;;;-4.49;71.38;99223.38;215972;1253;61250;-70
2024/01/16 08:03:22;;;;;;;4.40;1.20;;;;;;;-4.55;71.15;99236.40;216052;1254;61210;-71
2024/01/16 08:08:15;;;;;;;2.50;1.10;;;;;;;-4.55;71.47;99243.98;216139;1254;61279;-71
2024/01/16 08:13:07;;;;;;;1.60;1.20;;;;;;;-4.55;71.40;99247.08;216146;1254;61214;-71
2024/01/16 08:18:00;;;;;;;1.50;1.00;;;;;;;-4.52;71.18;99252.48;216027;1253;61269;-71
2024/01/16 08:22:54;;;;;;;2.20;1.40;;;;;;;-4.51;70.99;99263.55;216042;1253;61252;-71
2024/01/16 08:27:46;;;;;;;1.00;0.90;;;;;;;-4.53;70.57;99268.15;215944;1254;61378;-69
2024/01/16 08:32:39;;;;;;;1.40;0.80;;;;;;;-4.49;70.61;99278.84;215960;1254;61339;-72
2024/01/16 08:37:35;;;;;;;2.80;1.60;;;;;;;-4.47;70.47;99279.46;215981;1254;61717;-72
2024/01/16 08:42:28;;;;;;;1.80;0.80;;;;;;;-4.48;70.16;99290.61;216125;1252;72358;-72
2024/01/16 08:47:21;;;;;;;2.80;0.90;;;;;;;-4.47;69.97;99294.36;215968;1254;61319;-72
2024/01/16 08:52:14;;;;;;;1.70;0.80;;;;;;;-4.44;70.02;99303.46;215961;1253;61314;-71
2024/01/16 08:57:06;;;;;;;1.50;1.00;;;;;;;-4.41;69.86;99316.52;216075;1256;61220;-73
2024/01/16 09:02:03;;;;;;;3.00;1.00;;;;;;;-4.37;69.45;99325.48;216271;1253;74570;-73
2024/01/16 09:06:56;;;;;;;1.30;0.90;;;;;;;-4.31;69.67;99334.65;216245;1253;72594;-74
2024/01/16 09:11:49;;;;;;;1.30;0.50;;;;;;;-4.27;69.29;99332.67;216126;1253;61247;-74
2024/01/16 09:16:42;;;;;;;1.00;0.80;;;;;;;-4.20;69.21;99336.26;216145;1253;65077;-72
2024/01/16 09:21:35;;;;;;;1.30;0.80;;;;;;;-4.11;68.62;99338.76;215842;1252;61247;-72
2024/01/16 09:26:34;;;;;;;1.90;1.10;;;;;;;-4.09;68.24;99351.71;215994;1253;61349;-74
2024/01/16 09:31:30;;;;;;;1.40;0.70;;;;;;;-4.07;67.92;99347.92;216091;1253;71372;-73
2024/01/16 09:36:23;;;;;;;1.20;0.60;;;;;;;-4.02;68.12;99350.23;216113;1254;61324;-72
2024/01/16 09:41:16;;;;;;;0.70;0.70;;;;;;;-3.98;67.88;99351.81;216065;1254;61339;-72
2024/01/16 09:46:10;;;;;;;1.40;0.70;;;;;;;-3.94;67.67;99356.23;216127;1253;61722;-72
2024/01/16 09:51:04;;;;;;;2.00;0.80;;;;;;;-3.92;67.35;99358.35;216087;1253;73814;-72
2024/01/16 09:56:02;;;;;;;1.50;0.90;;;;;;;-3.89;67.04;99361.89;216158;1252;72216;-72
2024/01/16 10:00:56;;;;;;;1.00;0.70;;;;;;;-3.85;67.32;99365.35;216036;1254;61259;-72
2024/01/16 10:05:50;;;;;;;0.90;0.50;;;;;;;-3.80;67.30;99375.88;216117;1253;66244;-71
2024/01/16 10:10:43;;;;;;;1.20;0.60;;;;;;;-3.78;66.88;99388.38;216099;1254;61240;-71
2024/01/16 10:15:41;;;;;;;0.60;0.60;;;;;;;-3.74;66.35;99392.30;216141;1254;73150;-71
2024/01/16 10:20:36;;;;;;;1.20;1.00;;;;;;;-3.67;66.74;99397.95;216088;1252;61285;-72
2024/01/16 10:25:29;;;;;;;1.60;0.80;;;;;;;-3.54;66.74;99402.15;216095;1254;61348;-71
2024/01/16 10:30:23;;;;;;;0.70;0.50;;;;;;;-3.37;66.14;99412.18;216106;1253;66254;-73
2024/01/16 10:35:16;;;;;;;2.90;0.90;;;;;;;-2.69;65.62;99416.88;216176;1254;61251;-70
2024/01/16 10:40:09;;;;;;;3.00;0.90;;;;;;;-0.61;63.85;99418.42;216267;1253;61256;-71
2024/01/16 10:45:02;;;;;;;1.10;0.70;;;;;;;2.31;60.85;99412.27;216166;1253;61269;-71
2024/01/16 10:49:55;;;;;;;2.10;0.80;;;;;;;3.07;57.92;99408.26;216289;1254;61223;-72
2024/01/16 10:54:50;;;;;;;0.80;0.80;;;;;;;3.34;56.70;99407.05;216113;1253;71061;-72
2024/01/16 10:59:48;;;;;;;1.90;1.10;;;;;;;4.27;56.52;99411.36;216096;1253;61230;-72
2024/01/16 11:04:46;;;;;;;1.70;1.20;;;;;;;5.63;55.02;99409.34;216017;1254;73535;-72
2024/01/16 11:09:41;;;;;;;2.80;1.90;;;;;;;5.13;54.76;99418.92;216170;1255;71963;-70
2024/01/16 11:14:35;;;;;;;2.50;1.70;;;;;;;6.39;54.69;99417.33;216408;1254;61381;-70
2024/01/16 11:19:29;;;;;;;3.90;2.30;;;;;;;6.72;52.49;99417.73;216261;1253;65623;-70
2024/01/16 11:24:42;;;;;;;3.90;2.10;;;;;;;6.86;53.13;99419.09;216228;1253;61263;-70
2024/01/16 11:29:37;;;;;;;2.90;2.00;;;;;;;5.66;53.20;99432.34;216247;1253;74323;-70
2024/01/16 11:34:42;;;;;;;4.50;3.00;;;;;;;4.10;54.51;99438.65;216248;1252;72571;-71
2024/01/16 11:39:36;;;;;;;4.30;2.80;;;;;;;3.72;54.88;99435.34;216332;1254;61233;-71
2024/01/16 11:44:46;;;;;;;4.50;3.10;;;;;;;4.82;54.49;99435.20;216322;1253;64815;-71
2024/01/16 11:49:41;;;;;;;5.80;3.10;;;;;;;5.35;53.25;99431.55;216289;1252;61283;-71
2024/01/16 11:54:34;;;;;;;6.30;3.40;;;;;;;4.33;54.23;99436.42;216234;1253;74920;-70
2024/01/16 11:59:37;;;;;;;5.00;3.00;;;;;;;3.17;54.87;99454.74;216284;1253;71044;-71
2024/01/16 12:04:30;;;;;;;4.60;2.60;;;;;;;2.08;55.03;99468.90;216282;1253;61246;-71
2024/01/16 12:09:23;;;;;;;6.00;2.80;;;;;;;1.63;55.93;99471.24;216379;1254;61285;-71
2024/01/16 12:14:15;;;;;;;7.90;3.80;;;;;;;1.84;55.82;99471.73;216333;1254;62013;-71
2024/01/16 12:19:09;;;;;;;5.30;2.80;;;;;;;1.99;56.13;99482.80;216282;1254;61243;-71
2024/01/16 12:24:07;;;;;;;4.80;3.00;;;;;;;1.60;55.90;99488.05;216317;1253;71088;-71
2024/01/16 12:29:05;;;;;;;5.20;2.40;;;;;;;0.81;57.19;99493.70;216254;1254;61221;-71
2024/01/16 12:34:08;;;;;;;3.30;2.70;;;;;;;0.37;57.82;99487.80;216227;1253;66576;-71
2024/01/16 12:39:03;;;;;;;6.20;2.70;;;;;;;0.15;57.95;99501.44;216411;1253;61243;-71
2024/01/16 12:43:56;;;;;;;3.30;2.60;;;;;;;-0.16;58.22;99497.48;216109;1254;75293;-71
2024/01/16 12:49:03;;;;;;;4.10;3.20;;;;;;;-0.75;58.43;99510.53;216212;1254;71349;-71
2024/01/16 12:54:21;;;;;;;5.50;2.30;;;;;;;-1.28;58.82;99522.86;216348;1254;61291;-70
2024/01/16 12:59:16;;;;;;;4.50;2.40;;;;;;;-1.61;59.35;99539.39;216284;1254;65808;-71
2024/01/16 13:04:09;;;;;;;5.60;2.40;;;;;;;-1.83;59.90;99544.95;216230;1253;61311;-71
2024/01/16 13:09:14;;;;;;;5.00;2.60;;;;;;;-1.99;60.18;99544.53;216239;1256;61356;-71
2024/01/16 13:14:08;;;;;;;6.30;3.10;;;;;;;-2.07;60.74;99547.92;216242;1254;71349;-72
2024/01/16 13:19:03;;;;;;;2.90;1.90;;;;;;;-2.15;60.96;99547.33;216208;1254;61215;-71
2024/01/16 13:23:57;;;;;;;3.10;2.10;;;;;;;-2.26;60.97;99549.84;216214;1256;66969;-71
2024/01/16 13:28:50;;;;;;;5.00;2.60;;;;;;;-2.42;61.01;99553.00;216259;1253;61204;-71
2024/01/16 13:33:44;;;;;;;4.90;2.80;;;;;;;-2.51;61.53;99557.98;216131;1254;135101;-72
2024/01/16 13:38:37;;;;;;;3.90;2.10;;;;;;;-2.61;61.61;99556.95;216299;1254;71973;-71
2024/01/16 13:43:30;;;;;;;4.90;2.40;;;;;;;-2.71;62.01;99572.19;216172;1254;61257;-71
2024/01/16 13:48:22;;;;;;;6.80;3.00;;;;;;;-2.80;62.26;99577.67;216221;1256;61271;-71
2024/01/16 13:53:15;;;;;;;5.10;2.90;;;;;;;-2.89;62.33;99582.46;216073;1253;61230;-72
2024/01/16 13:58:09;;;;;;;4.70;2.40;;;;;;;-2.98;62.35;99590.29;216267;1254;64023;-71
2024/01/16 14:03:03;;;;;;;4.70;2.40;;;;;;;-3.04;62.81;99607.62;216347;1253;70903;-71
2024/01/16 14:07:56;;;;;;;4.30;2.50;;;;;;;-3.04;62.79;99613.19;216212;1253;61317;-71
2024/01/16 14:12:51;;;;;;;5.20;2.20;;;;;;;-3.07;62.75;99617.00;216238;1252;61241;-71
2024/01/16 14:17:45;;;;;;;5.00;3.00;;;;;;;-3.11;62.75;99626.41;216208;1254;61327;-71
2024/01/16 14:22:39;;;;;;;5.30;2.90;;;;;;;-3.16;63.16;99634.98;216175;1256;74556;-71
2024/01/16 14:27:32;;;;;;;3.80;2.60;;;;;;;-3.18;63.52;99640.80;216230;1253;72563;-71
2024/01/16 14:32:25;;;;;;;3.30;2.20;;;;;;;-3.24;63.42;99657.92;216267;1253;61214;-71
2024/01/16 14:37:17;;;;;;;5.20;2.40;;;;;;;-3.31;63.70;99671.94;216199;1254;61243;-71
2024/01/16 14:42:10;;;;;;;4.80;2.40;;;;;;;-3.37;64.03;99681.61;216208;1253;61358;-71
2024/01/16 14:47:05;;;;;;;2.90;1.80;;;;;;;-3.40;64.06;99687.00;216267;1253;75405;-72
2024/01/16 14:51:59;;;;;;;4.50;2.70;;;;;;;-3.43;64.51;99689.86;216260;1254;71577;-71
2024/01/16 14:56:51;;;;;;;4.80;2.90;;;;;;;-3.45;64.63;99691.15;216312;1254;61254;-72
2024/01/16 15:01:45;;;;;;;7.10;2.80;;;;;;;-3.48;64.90;99697.80;216186;1254;61243;-72
2024/01/16 15:06:38;;;;;;;4.80;2.00;;;;;;;-3.54;64.92;99704.38;216283;1256;61447;-72
2024/01/16 15:11:30;;;;;;;5.20;2.40;;;;;;;-3.62;64.81;99711.23;216321;1256;61333;-72
2024/01/16 15:16:24;;;;;;;8.70;3.00;;;;;;;-3.71;64.79;99712.20;216236;1253;61248;-72
2024/01/16 15:21:18;;;;;;;4.50;2.30;;;;;;;-3.87;64.88;99715.22;216225;1254;61705;-72
2024/01/16 15:26:14;;;;;;;4.40;2.60;;;;;;;-4.04;64.91;99724.34;216229;1253;67070;-72
2024/01/16 15:31:07;;;;;;;6.90;2.40;;;;;;;-4.22;64.99;99738.20;216177;1254;61343;-72
2024/01/16 15:36:01;;;;;;;6.40;3.00;;;;;;;-4.37;65.39;99740.98;216246;1254;73452;-72
2024/01/16 15:40:54;;;;;;;3.00;2.10;;;;;;;-4.52;65.84;99747.19;216207;1254;71408;-72
2024/01/16 15:45:47;;;;;;;6.70;3.60;;;;;;;-4.67;66.08;99747.13;216170;1254;61221;-72
2024/01/16 15:50:40;;;;;;;6.50;2.80;;;;;;;-4.79;66.35;99752.63;216187;1254;61294;-72
2024/01/16 15:55:33;;;;;;;6.10;3.40;;;;;;;-4.93;66.44;99757.35;216149;1253;61265;-72
2024/01/16 16:00:26;;;;;;;6.30;4.30;;;;;;;-5.04;66.57;99762.77;216172;1254;61352;-72
2024/01/16 16:05:18;;;;;;;9.00;4.00;;;;;;;-5.14;66.70;99762.14;216145;1254;61256;-72
2024/01/16 16:10:11;;;;;;;6.40;4.10;;;;;;;-5.22;67.13;99773.81;216119;1254;61369;-72
2024/01/16 16:15:05;;;;;;;9.90;5.20;;;;;;;-5.27;67.29;99782.20;216296;1253;61311;-72
2024/01/16 16:19:58;;;;;;;7.10;4.10;;;;;;;-5.28;67.53;99794.30;216179;1254;61508;-72
2024/01/16 16:24:50;;;;;;;7.50;4.40;;;;;;;-5.27;67.81;99796.27;216220;1254;61797;-72
2024/01/16 16:29:43;;;;;;;7.70;4.00;;;;;;;-5.23;68.12;99800.39;216186;1254;61239;-72
2024/01/16 16:34:36;;;;;;;9.20;5.30;;;;;;;-5.23;68.28;99801.73;216143;1254;61233;-72
2024/01/16 16:39:29;;;;;;;9.30;5.80;;;;;;;-5.25;68.28;99799.75;216241;1254;61242;-72
2024/01/16 16:44:22;;;;;;;17.60;7.10;;;;;;;-5.31;68.52;99803.93;216227;1254;61244;-72
2024/01/16 16:49:15;;;;;;;15.40;7.10;;;;;;;-5.41;68.22;99806.52;216295;1254;61241;-72
2024/01/16 16:54:08;;;;;;;13.80;6.70;;;;;;;-5.49;68.42;99810.36;216267;1254;61343;-72
2024/01/16 16:59:01;;;;;;;15.30;6.80;;;;;;;-5.61;68.63;99816.95;216283;1254;61308;-72
2024/01/16 17:03:54;;;;;;;15.80;6.30;;;;;;;-5.75;68.91;99828.40;216211;1253;61271;-72
2024/01/16 17:08:47;;;;;;;13.70;7.50;;;;;;;-5.87;69.22;99824.36;216161;1256;61256;-72
2024/01/16 17:13:42;;;;;;;13.40;8.20;;;;;;;-6.03;69.20;99825.68;216129;1253;61374;-72
2024/01/16 17:18:37;;;;;;;20.40;8.50;;;;;;;-6.19;69.26;99830.48;216089;1253;73479;-72
2024/01/16 17:23:32;;;;;;;13.50;5.40;;;;;;;-6.37;69.11;99831.45;216246;1253;61387;-72
2024/01/16 17:28:25;;;;;;;15.90;7.50;;;;;;;-6.55;69.19;99832.55;216201;1254;67379;-72
2024/01/16 17:33:20;;;;;;;15.00;6.50;;;;;;;-6.74;69.46;99838.13;216203;1252;61318;-72
2024/01/16 17:38:13;;;;;;;12.10;6.00;;;;;;;-6.87;69.59;99844.95;216183;1254;73608;-72
2024/01/16 17:43:06;;;;;;;11.10;6.00;;;;;;;-7.00;69.43;99850.40;216219;1254;71351;-72
2024/01/16 17:48:00;;;;;;;14.30;6.80;;;;;;;-7.16;69.22;99857.33;216252;1254;61294;-72
2024/01/16 17:52:53;;;;;;;13.10;5.80;;;;;;;-7.34;69.34;99860.11;216214;1254;66900;-72
2024/01/16 17:57:46;;;;;;;10.80;5.80;;;;;;;-7.48;69.46;99862.55;216169;1254;61346;-72
2024/01/16 18:02:40;;;;;;;11.20;6.00;;;;;;;-7.62;69.76;99865.55;216195;1256;61240;-72
2024/01/16 18:07:32;;;;;;;13.10;7.20;;;;;;;-7.74;70.03;99881.36;216145;1256;72618;-73
2024/01/16 18:12:27;;;;;;;12.60;6.80;;;;;;;-7.84;69.98;99881.58;216306;1255;61413;-73
2024/01/16 18:17:20;;;;;;;16.50;7.80;;;;;;;-7.93;70.40;99886.41;216170;1256;67428;-72
2024/01/16 18:22:16;;;;;;;14.10;6.90;;;;;;;-8.00;70.45;99893.11;216296;1254;61192;-73
2024/01/16 18:27:08;;;;;;;14.60;7.60;;;;;;;-8.12;70.50;99899.42;216118;1254;73392;-73
2024/01/16 18:32:03;;;;;;;18.40;9.20;;;;;;;-8.22;70.57;99903.91;216083;1254;61347;-73
2024/01/16 18:36:56;;;;;;;21.60;9.00;;;;;;;-8.36;70.40;99905.50;216088;1253;61275;-73
2024/01/16 18:41:50;;;;;;;26.70;11.00;;;;;;;-8.50;70.37;99910.34;216188;1254;66141;-72
2024/01/16 18:46:43;;;;;;;27.50;14.10;;;;;;;-8.62;70.47;99913.73;216107;1254;61326;-73
2024/01/16 18:51:36;;;;;;;33.50;15.50;;;;;;;-8.74;70.60;99919.30;216179;1255;61368;-73
2024/01/16 18:56:29;;;;;;;31.30;15.20;;;;;;;-8.85;70.58;99921.04;216171;1254;73244;-72
2024/01/16 19:01:28;;;;;;;34.30;16.70;;;;;;;-8.96;70.48;99925.48;216143;1254;61129;-72
2024/01/16 19:06:22;;;;;;;37.80;16.80;;;;;;;-9.01;70.95;99931.45;216176;1254;66805;-73
2024/01/16 19:11:16;;;;;;;38.10;18.60;;;;;;;-9.04;71.07;99940.80;216021;1254;61257;-73
2024/01/16 19:16:11;;;;;;;38.80;19.20;;;;;;;-9.12;70.93;99953.22;216169;1256;73403;-73
2024/01/16 19:21:07;;;;;;;52.70;23.40;;;;;;;-9.26;70.76;99960.95;216118;1254;72489;-73
2024/01/16 19:26:00;;;;;;;35.70;17.20;;;;;;;-9.40;70.29;99968.71;216002;1255;61262;-71
2024/01/16 19:30:55;;;;;;;47.20;19.90;;;;;;;-9.51;69.95;99974.63;215794;1254;67069;-72
2024/01/16 19:35:51;;;;;;;34.40;14.90;;;;;;;-9.60;69.87;99979.77;215940;1254;61324;-71
2024/01/16 19:40:44;;;;;;;42.30;18.60;;;;;;;-9.66;70.29;99987.98;216078;1254;73657;-73
2024/01/16 19:45:37;;;;;;;51.60;20.70;;;;;;;-9.66;70.57;99994.48;216082;1254;72504;-74
2024/01/16 19:50:29;;;;;;;43.90;21.50;;;;;;;-9.60;71.26;99988.30;216202;1256;61374;-74
2024/01/16 19:55:23;;;;;;;38.40;18.80;;;;;;;-9.55;71.55;99987.71;216080;1256;61210;-74
2024/01/16 20:00:19;;;;;;;36.90;19.30;;;;;;;-9.55;71.56;99989.42;216057;1254;61364;-75
2024/01/16 20:05:14;;;;;;;48.40;19.60;;;;;;;-9.60;71.44;100003.63;216150;1254;74545;-74
2024/01/16 20:10:12;;;;;;;41.70;20.10;;;;;;;-9.63;71.11;100006.57;216013;1256;70100;-74
2024/01/16 20:15:05;;;;;;;51.10;20.10;;;;;;;-9.65;71.15;100006.19;216074;1255;61301;-75
2024/01/16 20:19:59;;;;;;;40.20;21.30;;;;;;;-9.66;71.31;100011.79;216050;1254;65706;-73
2024/01/16 20:24:54;;;;;;;38.70;19.20;;;;;;;-9.66;71.15;100021.22;216069;1256;61214;-74
2024/01/16 20:29:46;;;;;;;51.40;23.40;;;;;;;-9.62;71.43;100029.14;216002;1254;73459;-74
2024/01/16 20:34:40;;;;;;;56.00;26.90;;;;;;;-9.58;71.56;100028.75;215866;1256;61320;-74
2024/01/16 20:39:34;;;;;;;53.50;24.60;;;;;;;-9.54;71.61;100030.88;216007;1254;61355;-74
2024/01/16 20:44:32;;;;;;;64.20;27.30;;;;;;;-9.49;71.86;100035.56;215751;1257;66171;-74
2024/01/16 20:49:25;;;;;;;57.30;26.20;;;;;;;-9.37;72.27;100034.02;215990;1254;61279;-74
2024/01/16 20:54:18;;;;;;;56.10;25.60;;;;;;;-9.31;72.15;100029.08;215930;1254;61285;-75
2024/01/16 20:59:11;;;;;;;55.20;26.00;;;;;;;-9.28;72.04;100025.90;216040;1257;62700;-75
2024/01/16 21:04:04;;;;;;;50.00;24.60;;;;;;;-9.20;72.28;100013.98;216109;1257;61251;-75
2024/01/16 21:08:57;;;;;;;37.80;19.70;;;;;;;-9.16;72.29;100006.77;216084;1254;61384;-73
2024/01/16 21:13:51;;;;;;;39.70;21.30;;;;;;;-9.17;71.86;100007.70;215927;1254;61289;-73
2024/01/16 21:18:44;;;;;;;56.70;29.30;;;;;;;-9.22;72.04;100012.02;216339;1257;73588;-73
2024/01/16 21:23:38;;;;;;;51.30;27.70;;;;;;;-9.17;72.40;100014.41;216561;1254;71834;-73
2024/01/16 21:28:30;;;;;;;54.00;27.30;;;;;;;-9.13;72.40;100009.66;216196;1254;61301;-73
2024/01/16 21:33:24;;;;;;;57.60;28.40;;;;;;;-9.10;72.54;100011.77;216532;1254;61257;-73
2024/01/16 21:38:17;;;;;;;57.30;27.60;;;;;;;-9.14;72.20;100023.41;216281;1256;61375;-73
2024/01/16 21:43:10;;;;;;;47.50;25.50;;;;;;;-9.25;72.00;100033.73;215988;1253;75362;-73
2024/01/16 21:48:04;;;;;;;59.70;30.20;;;;;;;-9.35;72.36;100046.16;216452;1254;73111;-74
2024/01/16 21:52:57;;;;;;;53.60;25.00;;;;;;;-9.45;72.35;100059.25;216447;1253;61203;-73
2024/01/16 21:57:50;;;;;;;65.20;25.70;;;;;;;-9.49;72.61;100054.17;215932;1254;61880;-73
2024/01/16 22:02:42;;;;;;;49.60;22.00;;;;;;;-9.48;72.61;100053.22;215973;1256;61259;-73
2024/01/16 22:07:35;;;;;;;53.40;22.80;;;;;;;-9.51;72.52;100050.25;216095;1254;61368;-73
2024/01/16 22:12:28;;;;;;;52.70;23.70;;;;;;;-9.55;72.55;100047.76;216269;1254;61241;-73
2024/01/16 22:17:22;;;;;;;54.70;24.60;;;;;;;-9.62;72.56;100034.19;216123;1256;61354;-73
2024/01/16 22:22:15;;;;;;;65.50;29.10;;;;;;;-9.65;72.77;100021.83;216168;1254;65799;-73
2024/01/16 22:27:08;;;;;;;68.40;32.10;;;;;;;-9.71;72.59;100023.50;216134;1254;61361;-73
2024/01/16 22:32:01;;;;;;;65.50;29.10;;;;;;;-9.64;73.06;100021.03;216031;1254;61291;-73
2024/01/16 22:36:54;;;;;;;61.10;29.10;;;;;;;-9.59;72.94;100025.83;216380;1254;61256;-74
2024/01/16 22:41:47;;;;;;;67.30;30.20;;;;;;;-9.50;73.22;100014.00;216099;1255;61306;-73